sensor_id;sensor_type;location;lat;lon;timestamp;P1;durP1;ratioP1;P2;durP2;ratioP2
47589;SDS011;33316;52.298;9.056;2023-04-25T00:01:57;8.35;;;2.40;;
47589;SDS011;33316;52.298;9.056;2023-04-25T00:04:24;7.63;;;2.85;;
47589;SDS011;33316;52.298;9.056;2023-04-25T00:06:52;7.70;;;2.55;;
47589;SDS011;33316;52.298;9.056;2023-04-25T00:09:19;6.78;;;2.67;;
47589;SDS011;33316;52.298;9.056;2023-04-25T00:11:46;7.45;;;2.60;;
47589;SDS011;33316;52.298;9.056;2023-04-25T00:14:14;6.20;;;2.92;;
47589;SDS011;33316;52.298;9.056;2023-04-25T00:16:41;6.25;;;2.80;;
47589;SDS011;33316;52.298;9.056;2023-04-25T00:19:09;4.63;;;2.47;;
47589;SDS011;33316;52.298;9.056;2023-04-25T00:21:35;7.45;;;3.10;;
47589;SDS011;33316;52.298;9.056;2023-04-25T00:24:05;8.73;;;2.72;;
47589;SDS011;33316;52.298;9.056;2023-04-25T00:26:33;9.85;;;3.15;;
47589;SDS011;33316;52.298;9.056;2023-04-25T00:28:59;8.63;;;3.20;;
47589;SDS011;33316;52.298;9.056;2023-04-25T00:31:28;8.00;;;3.08;;
47589;SDS011;33316;52.298;9.056;2023-04-25T00:33:55;6.93;;;2.88;;
47589;SDS011;33316;52.298;9.056;2023-04-25T00:36:22;6.60;;;2.78;;
47589;SDS011;33316;52.298;9.056;2023-04-25T00:38:48;8.88;;;3.20;;
47589;SDS011;33316;52.298;9.056;2023-04-25T00:41:15;7.93;;;3.17;;
47589;SDS011;33316;52.298;9.056;2023-04-25T00:43:42;11.13;;;3.67;;
47589;SDS011;33316;52.298;9.056;2023-04-25T00:46:11;7.18;;;3.03;;
47589;SDS011;33316;52.298;9.056;2023-04-25T00:48:39;7.18;;;3.30;;
47589;SDS011;33316;52.298;9.056;2023-04-25T00:51:06;9.48;;;3.22;;
47589;SDS011;33316;52.298;9.056;2023-04-25T00:53:32;8.82;;;3.42;;
47589;SDS011;33316;52.298;9.056;2023-04-25T00:55:59;6.70;;;3.03;;
47589;SDS011;33316;52.298;9.056;2023-04-25T00:58:26;5.60;;;2.95;;
47589;SDS011;33316;52.298;9.056;2023-04-25T01:00:53;6.60;;;2.95;;
47589;SDS011;33316;52.298;9.056;2023-04-25T01:03:21;6.18;;;3.17;;
47589;SDS011;33316;52.298;9.056;2023-04-25T01:05:49;5.75;;;2.88;;
47589;SDS011;33316;52.298;9.056;2023-04-25T01:08:16;8.52;;;3.03;;
47589;SDS011;33316;52.298;9.056;2023-04-25T01:10:43;8.00;;;3.40;;
47589;SDS011;33316;52.298;9.056;2023-04-25T01:13:10;8.75;;;3.05;;
47589;SDS011;33316;52.298;9.056;2023-04-25T01:15:36;7.80;;;3.30;;
47589;SDS011;33316;52.298;9.056;2023-04-25T01:18:03;5.38;;;2.67;;
47589;SDS011;33316;52.298;9.056;2023-04-25T01:20:31;6.97;;;3.08;;
47589;SDS011;33316;52.298;9.056;2023-04-25T01:23:00;8.52;;;2.85;;
47589;SDS011;33316;52.298;9.056;2023-04-25T01:25:28;6.78;;;3.13;;
47589;SDS011;33316;52.298;9.056;2023-04-25T01:27:55;6.97;;;3.17;;
47589;SDS011;33316;52.298;9.056;2023-04-25T01:30:23;9.70;;;3.67;;
47589;SDS011;33316;52.298;9.056;2023-04-25T01:32:51;8.98;;;3.50;;
47589;SDS011;33316;52.298;9.056;2023-04-25T01:35:18;6.55;;;3.15;;
47589;SDS011;33316;52.298;9.056;2023-04-25T01:37:45;7.32;;;3.30;;
47589;SDS011;33316;52.298;9.056;2023-04-25T01:40:13;8.43;;;4.10;;
47589;SDS011;33316;52.298;9.056;2023-04-25T01:42:41;10.52;;;3.75;;
47589;SDS011;33316;52.298;9.056;2023-04-25T01:45:09;6.75;;;3.10;;
47589;SDS011;33316;52.298;9.056;2023-04-25T01:47:36;6.47;;;3.47;;
47589;SDS011;33316;52.298;9.056;2023-04-25T01:50:05;7.55;;;3.17;;
47589;SDS011;33316;52.298;9.056;2023-04-25T01:52:32;7.03;;;3.45;;
47589;SDS011;33316;52.298;9.056;2023-04-25T01:55:00;7.38;;;3.38;;
47589;SDS011;33316;52.298;9.056;2023-04-25T01:57:29;8.45;;;3.15;;
47589;SDS011;33316;52.298;9.056;2023-04-25T01:59:57;7.85;;;2.80;;
47589;SDS011;33316;52.298;9.056;2023-04-25T02:02:25;6.43;;;2.72;;
47589;SDS011;33316;52.298;9.056;2023-04-25T02:04:52;9.50;;;2.50;;
47589;SDS011;33316;52.298;9.056;2023-04-25T02:07:21;6.55;;;2.08;;
47589;SDS011;33316;52.298;9.056;2023-04-25T02:09:47;8.77;;;2.40;;
47589;SDS011;33316;52.298;9.056;2023-04-25T02:12:14;11.07;;;2.70;;
47589;SDS011;33316;52.298;9.056;2023-04-25T02:14:42;8.32;;;2.05;;
47589;SDS011;33316;52.298;9.056;2023-04-25T02:17:09;6.50;;;1.83;;
47589;SDS011;33316;52.298;9.056;2023-04-25T02:19:37;9.52;;;2.30;;
47589;SDS011;33316;52.298;9.056;2023-04-25T02:22:04;8.60;;;2.08;;
47589;SDS011;33316;52.298;9.056;2023-04-25T02:24:31;8.82;;;2.15;;
47589;SDS011;33316;52.298;9.056;2023-04-25T02:26:58;7.05;;;1.80;;
47589;SDS011;33316;52.298;9.056;2023-04-25T02:29:25;5.82;;;2.00;;
47589;SDS011;33316;52.298;9.056;2023-04-25T02:31:53;8.63;;;2.30;;
47589;SDS011;33316;52.298;9.056;2023-04-25T02:34:20;8.05;;;2.25;;
47589;SDS011;33316;52.298;9.056;2023-04-25T02:36:47;7.85;;;1.88;;
47589;SDS011;33316;52.298;9.056;2023-04-25T02:39:15;9.88;;;1.98;;
47589;SDS011;33316;52.298;9.056;2023-04-25T02:41:42;6.97;;;1.98;;
47589;SDS011;33316;52.298;9.056;2023-04-25T02:44:09;10.43;;;2.15;;
47589;SDS011;33316;52.298;9.056;2023-04-25T02:46:35;8.23;;;2.40;;
47589;SDS011;33316;52.298;9.056;2023-04-25T02:49:03;8.55;;;2.15;;
47589;SDS011;33316;52.298;9.056;2023-04-25T02:51:30;6.40;;;1.98;;
47589;SDS011;33316;52.298;9.056;2023-04-25T02:53:57;10.85;;;2.10;;
47589;SDS011;33316;52.298;9.056;2023-04-25T02:56:24;5.15;;;1.73;;
47589;SDS011;33316;52.298;9.056;2023-04-25T02:58:51;10.32;;;2.13;;
47589;SDS011;33316;52.298;9.056;2023-04-25T03:01:18;7.60;;;2.00;;
47589;SDS011;33316;52.298;9.056;2023-04-25T03:03:45;12.95;;;2.10;;
47589;SDS011;33316;52.298;9.056;2023-04-25T03:06:13;9.77;;;1.95;;
47589;SDS011;33316;52.298;9.056;2023-04-25T03:08:40;9.65;;;1.92;;
47589;SDS011;33316;52.298;9.056;2023-04-25T03:11:07;8.00;;;2.13;;
47589;SDS011;33316;52.298;9.056;2023-04-25T03:13:33;11.73;;;2.35;;
47589;SDS011;33316;52.298;9.056;2023-04-25T03:16:00;7.57;;;2.20;;
47589;SDS011;33316;52.298;9.056;2023-04-25T03:18:27;12.90;;;2.95;;
47589;SDS011;33316;52.298;9.056;2023-04-25T03:20:53;15.40;;;2.90;;
47589;SDS011;33316;52.298;9.056;2023-04-25T03:23:21;10.77;;;2.72;;
47589;SDS011;33316;52.298;9.056;2023-04-25T03:25:48;9.40;;;2.97;;
47589;SDS011;33316;52.298;9.056;2023-04-25T03:28:15;11.90;;;2.63;;
47589;SDS011;33316;52.298;9.056;2023-04-25T03:30:41;10.00;;;2.75;;
47589;SDS011;33316;52.298;9.056;2023-04-25T03:33:08;11.80;;;2.88;;
47589;SDS011;33316;52.298;9.056;2023-04-25T03:35:35;11.48;;;3.38;;
47589;SDS011;33316;52.298;9.056;2023-04-25T03:38:01;11.30;;;3.65;;
47589;SDS011;33316;52.298;9.056;2023-04-25T03:40:29;10.00;;;2.47;;
47589;SDS011;33316;52.298;9.056;2023-04-25T03:42:56;9.15;;;2.88;;
47589;SDS011;33316;52.298;9.056;2023-04-25T03:45:23;9.88;;;2.65;;
47589;SDS011;33316;52.298;9.056;2023-04-25T03:47:49;9.82;;;2.03;;
47589;SDS011;33316;52.298;9.056;2023-04-25T03:50:16;11.80;;;2.50;;
47589;SDS011;33316;52.298;9.056;2023-04-25T03:52:43;6.80;;;2.10;;
47589;SDS011;33316;52.298;9.056;2023-04-25T03:55:10;9.95;;;2.72;;
47589;SDS011;33316;52.298;9.056;2023-04-25T03:57:38;10.20;;;2.92;;
47589;SDS011;33316;52.298;9.056;2023-04-25T04:00:05;10.15;;;2.72;;
47589;SDS011;33316;52.298;9.056;2023-04-25T04:02:32;6.97;;;2.13;;
47589;SDS011;33316;52.298;9.056;2023-04-25T04:05:01;9.75;;;2.67;;
47589;SDS011;33316;52.298;9.056;2023-04-25T04:07:28;7.78;;;2.45;;
47589;SDS011;33316;52.298;9.056;2023-04-25T04:09:54;12.77;;;2.45;;
47589;SDS011;33316;52.298;9.056;2023-04-25T04:12:21;11.88;;;2.70;;
47589;SDS011;33316;52.298;9.056;2023-04-25T04:14:49;9.05;;;2.20;;
47589;SDS011;33316;52.298;9.056;2023-04-25T04:17:15;9.30;;;2.20;;
47589;SDS011;33316;52.298;9.056;2023-04-25T04:19:42;9.57;;;2.78;;
47589;SDS011;33316;52.298;9.056;2023-04-25T04:22:09;9.55;;;2.70;;
47589;SDS011;33316;52.298;9.056;2023-04-25T04:24:35;9.18;;;2.60;;
47589;SDS011;33316;52.298;9.056;2023-04-25T04:27:02;8.52;;;2.55;;
47589;SDS011;33316;52.298;9.056;2023-04-25T04:29:29;16.08;;;3.20;;
47589;SDS011;33316;52.298;9.056;2023-04-25T04:31:57;8.85;;;2.35;;
47589;SDS011;33316;52.298;9.056;2023-04-25T04:34:26;8.50;;;2.03;;
47589;SDS011;33316;52.298;9.056;2023-04-25T04:36:52;8.73;;;2.42;;
47589;SDS011;33316;52.298;9.056;2023-04-25T04:39:19;7.78;;;2.10;;
47589;SDS011;33316;52.298;9.056;2023-04-25T04:41:47;13.85;;;3.55;;
47589;SDS011;33316;52.298;9.056;2023-04-25T04:44:13;9.70;;;2.88;;
47589;SDS011;33316;52.298;9.056;2023-04-25T04:46:40;8.68;;;2.20;;
47589;SDS011;33316;52.298;9.056;2023-04-25T04:49:08;8.82;;;2.35;;
47589;SDS011;33316;52.298;9.056;2023-04-25T04:51:35;6.20;;;2.17;;
47589;SDS011;33316;52.298;9.056;2023-04-25T04:54:02;12.38;;;2.65;;
47589;SDS011;33316;52.298;9.056;2023-04-25T04:56:29;14.48;;;2.70;;
47589;SDS011;33316;52.298;9.056;2023-04-25T04:58:56;6.40;;;2.30;;
47589;SDS011;33316;52.298;9.056;2023-04-25T05:01:23;9.20;;;2.75;;
47589;SDS011;33316;52.298;9.056;2023-04-25T05:03:50;8.20;;;2.40;;
47589;SDS011;33316;52.298;9.056;2023-04-25T05:06:19;7.70;;;2.30;;
47589;SDS011;33316;52.298;9.056;2023-04-25T05:08:45;11.63;;;2.70;;
47589;SDS011;33316;52.298;9.056;2023-04-25T05:11:12;7.90;;;1.90;;
47589;SDS011;33316;52.298;9.056;2023-04-25T05:13:38;8.95;;;2.30;;
47589;SDS011;33316;52.298;9.056;2023-04-25T05:16:05;7.82;;;2.13;;
47589;SDS011;33316;52.298;9.056;2023-04-25T05:18:32;12.90;;;3.42;;
47589;SDS011;33316;52.298;9.056;2023-04-25T05:20:59;9.05;;;2.58;;
47589;SDS011;33316;52.298;9.056;2023-04-25T05:23:27;10.63;;;2.70;;
47589;SDS011;33316;52.298;9.056;2023-04-25T05:25:55;8.18;;;2.42;;
47589;SDS011;33316;52.298;9.056;2023-04-25T05:28:21;9.85;;;2.67;;
47589;SDS011;33316;52.298;9.056;2023-04-25T05:30:48;10.75;;;2.25;;
47589;SDS011;33316;52.298;9.056;2023-04-25T05:33:15;9.73;;;2.65;;
47589;SDS011;33316;52.298;9.056;2023-04-25T05:35:42;10.93;;;2.25;;
47589;SDS011;33316;52.298;9.056;2023-04-25T05:38:09;9.05;;;2.22;;
47589;SDS011;33316;52.298;9.056;2023-04-25T05:40:37;9.25;;;2.47;;
47589;SDS011;33316;52.298;9.056;2023-04-25T05:43:03;10.82;;;3.28;;
47589;SDS011;33316;52.298;9.056;2023-04-25T05:45:30;8.90;;;2.42;;
47589;SDS011;33316;52.298;9.056;2023-04-25T05:47:57;9.63;;;2.53;;
47589;SDS011;33316;52.298;9.056;2023-04-25T05:50:23;10.63;;;2.28;;
47589;SDS011;33316;52.298;9.056;2023-04-25T05:52:50;7.05;;;2.13;;
47589;SDS011;33316;52.298;9.056;2023-04-25T05:55:17;8.30;;;2.30;;
47589;SDS011;33316;52.298;9.056;2023-04-25T05:57:45;11.48;;;2.75;;
47589;SDS011;33316;52.298;9.056;2023-04-25T06:00:12;9.32;;;2.70;;
47589;SDS011;33316;52.298;9.056;2023-04-25T06:02:41;7.70;;;2.13;;
47589;SDS011;33316;52.298;9.056;2023-04-25T06:05:08;10.15;;;2.67;;
47589;SDS011;33316;52.298;9.056;2023-04-25T06:07:34;8.70;;;2.20;;
47589;SDS011;33316;52.298;9.056;2023-04-25T06:10:01;7.05;;;2.42;;
47589;SDS011;33316;52.298;9.056;2023-04-25T06:12:31;9.85;;;2.95;;
47589;SDS011;33316;52.298;9.056;2023-04-25T06:14:59;8.98;;;2.20;;
47589;SDS011;33316;52.298;9.056;2023-04-25T06:17:25;8.13;;;2.00;;
47589;SDS011;33316;52.298;9.056;2023-04-25T06:19:52;9.35;;;3.17;;
47589;SDS011;33316;52.298;9.056;2023-04-25T06:22:19;7.60;;;2.78;;
47589;SDS011;33316;52.298;9.056;2023-04-25T06:24:46;6.95;;;2.20;;
47589;SDS011;33316;52.298;9.056;2023-04-25T06:27:12;9.13;;;2.47;;
47589;SDS011;33316;52.298;9.056;2023-04-25T06:29:39;7.88;;;2.10;;
47589;SDS011;33316;52.298;9.056;2023-04-25T06:32:07;6.88;;;2.05;;
47589;SDS011;33316;52.298;9.056;2023-04-25T06:34:34;6.50;;;1.90;;
47589;SDS011;33316;52.298;9.056;2023-04-25T06:37:00;6.35;;;2.08;;
47589;SDS011;33316;52.298;9.056;2023-04-25T06:39:27;7.38;;;1.90;;
47589;SDS011;33316;52.298;9.056;2023-04-25T06:41:54;7.45;;;1.92;;
47589;SDS011;33316;52.298;9.056;2023-04-25T06:44:20;9.13;;;2.42;;
47589;SDS011;33316;52.298;9.056;2023-04-25T06:46:48;9.07;;;1.95;;
47589;SDS011;33316;52.298;9.056;2023-04-25T06:49:16;10.02;;;2.03;;
47589;SDS011;33316;52.298;9.056;2023-04-25T06:51:42;5.93;;;1.80;;
47589;SDS011;33316;52.298;9.056;2023-04-25T06:54:09;6.60;;;2.05;;
47589;SDS011;33316;52.298;9.056;2023-04-25T06:56:35;5.60;;;1.88;;
47589;SDS011;33316;52.298;9.056;2023-04-25T06:59:02;6.47;;;1.83;;
47589;SDS011;33316;52.298;9.056;2023-04-25T07:01:29;9.05;;;2.03;;
47589;SDS011;33316;52.298;9.056;2023-04-25T07:03:56;6.65;;;1.65;;
47589;SDS011;33316;52.298;9.056;2023-04-25T07:06:24;7.60;;;1.98;;
47589;SDS011;33316;52.298;9.056;2023-04-25T07:08:52;4.47;;;1.42;;
47589;SDS011;33316;52.298;9.056;2023-04-25T07:11:19;6.20;;;1.77;;
47589;SDS011;33316;52.298;9.056;2023-04-25T07:13:46;6.57;;;1.73;;
47589;SDS011;33316;52.298;9.056;2023-04-25T07:16:13;7.30;;;1.77;;
47589;SDS011;33316;52.298;9.056;2023-04-25T07:18:39;7.95;;;2.25;;
47589;SDS011;33316;52.298;9.056;2023-04-25T07:21:06;7.50;;;1.75;;
47589;SDS011;33316;52.298;9.056;2023-04-25T07:23:34;6.40;;;1.48;;
47589;SDS011;33316;52.298;9.056;2023-04-25T07:26:02;6.30;;;1.65;;
47589;SDS011;33316;52.298;9.056;2023-04-25T07:28:29;5.13;;;1.60;;
47589;SDS011;33316;52.298;9.056;2023-04-25T07:30:56;5.13;;;1.58;;
47589;SDS011;33316;52.298;9.056;2023-04-25T07:33:23;5.47;;;1.63;;
47589;SDS011;33316;52.298;9.056;2023-04-25T07:35:49;7.35;;;2.05;;
47589;SDS011;33316;52.298;9.056;2023-04-25T07:38:16;6.35;;;2.00;;
47589;SDS011;33316;52.298;9.056;2023-04-25T07:40:44;5.82;;;1.60;;
47589;SDS011;33316;52.298;9.056;2023-04-25T07:43:11;6.45;;;2.13;;
47589;SDS011;33316;52.298;9.056;2023-04-25T07:45:41;6.43;;;1.90;;
47589;SDS011;33316;52.298;9.056;2023-04-25T07:48:08;7.63;;;1.58;;
47589;SDS011;33316;52.298;9.056;2023-04-25T07:50:35;5.13;;;1.27;;
47589;SDS011;33316;52.298;9.056;2023-04-25T07:53:02;6.95;;;1.70;;
47589;SDS011;33316;52.298;9.056;2023-04-25T07:55:29;5.63;;;1.80;;
47589;SDS011;33316;52.298;9.056;2023-04-25T07:57:57;6.28;;;2.50;;
47589;SDS011;33316;52.298;9.056;2023-04-25T08:00:23;7.88;;;1.60;;
47589;SDS011;33316;52.298;9.056;2023-04-25T08:02:50;5.85;;;1.90;;
47589;SDS011;33316;52.298;9.056;2023-04-25T08:05:17;6.10;;;1.67;;
47589;SDS011;33316;52.298;9.056;2023-04-25T08:07:43;6.07;;;1.73;;
47589;SDS011;33316;52.298;9.056;2023-04-25T08:10:10;5.78;;;1.55;;
47589;SDS011;33316;52.298;9.056;2023-04-25T08:12:37;4.50;;;1.35;;
47589;SDS011;33316;52.298;9.056;2023-04-25T08:15:05;5.28;;;1.45;;
47589;SDS011;33316;52.298;9.056;2023-04-25T08:17:33;6.53;;;1.52;;
47589;SDS011;33316;52.298;9.056;2023-04-25T08:19:59;5.82;;;1.60;;
47589;SDS011;33316;52.298;9.056;2023-04-25T08:22:30;3.63;;;1.17;;
47589;SDS011;33316;52.298;9.056;2023-04-25T08:24:57;6.18;;;1.70;;
47589;SDS011;33316;52.298;9.056;2023-04-25T08:27:26;4.82;;;1.77;;
47589;SDS011;33316;52.298;9.056;2023-04-25T08:29:55;5.43;;;1.17;;
47589;SDS011;33316;52.298;9.056;2023-04-25T08:32:27;4.28;;;1.58;;
47589;SDS011;33316;52.298;9.056;2023-04-25T08:34:54;7.10;;;1.45;;
47589;SDS011;33316;52.298;9.056;2023-04-25T08:37:21;6.20;;;1.83;;
47589;SDS011;33316;52.298;9.056;2023-04-25T08:39:47;6.57;;;1.63;;
47589;SDS011;33316;52.298;9.056;2023-04-25T08:42:17;6.72;;;1.65;;
47589;SDS011;33316;52.298;9.056;2023-04-25T08:44:44;8.23;;;1.80;;
47589;SDS011;33316;52.298;9.056;2023-04-25T08:47:11;5.78;;;1.33;;
47589;SDS011;33316;52.298;9.056;2023-04-25T08:49:44;4.80;;;1.35;;
47589;SDS011;33316;52.298;9.056;2023-04-25T08:52:11;4.40;;;1.42;;
47589;SDS011;33316;52.298;9.056;2023-04-25T08:54:42;4.45;;;1.20;;
47589;SDS011;33316;52.298;9.056;2023-04-25T08:57:12;5.40;;;1.20;;
47589;SDS011;33316;52.298;9.056;2023-04-25T08:59:48;3.08;;;1.00;;
47589;SDS011;33316;52.298;9.056;2023-04-25T09:02:21;6.00;;;1.17;;
47589;SDS011;33316;52.298;9.056;2023-04-25T09:04:51;6.32;;;1.23;;
47589;SDS011;33316;52.298;9.056;2023-04-25T09:07:19;4.10;;;1.38;;
47589;SDS011;33316;52.298;9.056;2023-04-25T09:09:46;4.28;;;1.10;;
47589;SDS011;33316;52.298;9.056;2023-04-25T09:12:13;4.50;;;1.30;;
47589;SDS011;33316;52.298;9.056;2023-04-25T09:14:45;2.65;;;0.82;;
47589;SDS011;33316;52.298;9.056;2023-04-25T09:17:28;3.03;;;0.93;;
47589;SDS011;33316;52.298;9.056;2023-04-25T09:19:56;2.90;;;0.88;;
47589;SDS011;33316;52.298;9.056;2023-04-25T09:22:37;2.30;;;0.80;;
47589;SDS011;33316;52.298;9.056;2023-04-25T09:25:08;2.40;;;1.00;;
47589;SDS011;33316;52.298;9.056;2023-04-25T09:27:48;4.72;;;1.17;;
47589;SDS011;33316;52.298;9.056;2023-04-25T09:30:16;4.22;;;0.88;;
47589;SDS011;33316;52.298;9.056;2023-04-25T09:32:43;3.83;;;0.88;;
47589;SDS011;33316;52.298;9.056;2023-04-25T09:35:11;4.20;;;0.90;;
47589;SDS011;33316;52.298;9.056;2023-04-25T09:37:50;3.25;;;0.95;;
47589;SDS011;33316;52.298;9.056;2023-04-25T09:40:17;4.10;;;1.10;;
47589;SDS011;33316;52.298;9.056;2023-04-25T09:42:44;2.53;;;1.00;;
47589;SDS011;33316;52.298;9.056;2023-04-25T09:45:12;2.72;;;0.90;;
47589;SDS011;33316;52.298;9.056;2023-04-25T09:47:39;4.03;;;1.10;;
47589;SDS011;33316;52.298;9.056;2023-04-25T09:50:15;3.13;;;1.20;;
47589;SDS011;33316;52.298;9.056;2023-04-25T09:52:43;8.45;;;1.27;;
47589;SDS011;33316;52.298;9.056;2023-04-25T09:55:10;2.47;;;0.85;;
47589;SDS011;33316;52.298;9.056;2023-04-25T09:57:44;5.77;;;0.73;;
47589;SDS011;33316;52.298;9.056;2023-04-25T10:00:16;3.22;;;0.80;;
47589;SDS011;33316;52.298;9.056;2023-04-25T10:02:47;4.47;;;0.93;;
47589;SDS011;33316;52.298;9.056;2023-04-25T10:05:21;5.85;;;1.00;;
47589;SDS011;33316;52.298;9.056;2023-04-25T10:07:49;5.93;;;1.10;;
47589;SDS011;33316;52.298;9.056;2023-04-25T10:10:23;2.83;;;1.00;;
47589;SDS011;33316;52.298;9.056;2023-04-25T10:12:53;2.30;;;0.82;;
47589;SDS011;33316;52.298;9.056;2023-04-25T10:15:34;2.42;;;0.80;;
47589;SDS011;33316;52.298;9.056;2023-04-25T10:18:03;4.45;;;1.08;;
47589;SDS011;33316;52.298;9.056;2023-04-25T10:20:35;5.47;;;1.20;;
47589;SDS011;33316;52.298;9.056;2023-04-25T10:23:03;2.85;;;0.90;;
47589;SDS011;33316;52.298;9.056;2023-04-25T10:25:37;2.83;;;1.00;;
47589;SDS011;33316;52.298;9.056;2023-04-25T10:28:08;4.60;;;1.05;;
47589;SDS011;33316;52.298;9.056;2023-04-25T10:30:38;2.50;;;0.88;;
47589;SDS011;33316;52.298;9.056;2023-04-25T10:33:30;2.28;;;0.60;;
47589;SDS011;33316;52.298;9.056;2023-04-25T10:36:09;3.33;;;1.00;;
47589;SDS011;33316;52.298;9.056;2023-04-25T10:38:39;3.22;;;0.85;;
47589;SDS011;33316;52.298;9.056;2023-04-25T10:41:09;4.20;;;0.70;;
47589;SDS011;33316;52.298;9.056;2023-04-25T10:43:37;4.18;;;1.02;;
47589;SDS011;33316;52.298;9.056;2023-04-25T10:46:15;4.10;;;1.05;;
47589;SDS011;33316;52.298;9.056;2023-04-25T10:48:47;3.05;;;0.80;;
47589;SDS011;33316;52.298;9.056;2023-04-25T10:51:17;2.42;;;0.90;;
47589;SDS011;33316;52.298;9.056;2023-04-25T10:53:58;3.17;;;0.63;;
47589;SDS011;33316;52.298;9.056;2023-04-25T10:56:36;5.13;;;0.70;;
47589;SDS011;33316;52.298;9.056;2023-04-25T10:59:10;3.25;;;0.73;;
47589;SDS011;33316;52.298;9.056;2023-04-25T11:01:41;5.05;;;1.10;;
47589;SDS011;33316;52.298;9.056;2023-04-25T11:04:25;2.35;;;0.50;;
47589;SDS011;33316;52.298;9.056;2023-04-25T11:07:07;1.40;;;0.52;;
47589;SDS011;33316;52.298;9.056;2023-04-25T11:09:42;2.88;;;0.80;;
47589;SDS011;33316;52.298;9.056;2023-04-25T11:12:16;3.08;;;0.70;;
47589;SDS011;33316;52.298;9.056;2023-04-25T11:14:43;3.17;;;0.70;;
47589;SDS011;33316;52.298;9.056;2023-04-25T11:17:12;4.65;;;0.63;;
47589;SDS011;33316;52.298;9.056;2023-04-25T11:19:39;3.53;;;0.52;;
47589;SDS011;33316;52.298;9.056;2023-04-25T11:22:10;1.90;;;0.68;;
47589;SDS011;33316;52.298;9.056;2023-04-25T11:24:43;2.97;;;0.63;;
47589;SDS011;33316;52.298;9.056;2023-04-25T11:27:11;4.75;;;0.70;;
47589;SDS011;33316;52.298;9.056;2023-04-25T11:29:38;2.10;;;0.52;;
47589;SDS011;33316;52.298;9.056;2023-04-25T11:32:05;1.70;;;0.50;;
47589;SDS011;33316;52.298;9.056;2023-04-25T11:34:35;1.85;;;0.60;;
47589;SDS011;33316;52.298;9.056;2023-04-25T11:37:01;3.85;;;0.80;;
47589;SDS011;33316;52.298;9.056;2023-04-25T11:39:33;2.95;;;0.80;;
47589;SDS011;33316;52.298;9.056;2023-04-25T11:42:13;3.40;;;0.60;;
47589;SDS011;33316;52.298;9.056;2023-04-25T11:44:40;2.88;;;0.70;;
47589;SDS011;33316;52.298;9.056;2023-04-25T11:47:09;4.10;;;0.60;;
47589;SDS011;33316;52.298;9.056;2023-04-25T11:49:36;2.97;;;0.60;;
47589;SDS011;33316;52.298;9.056;2023-04-25T11:52:06;1.27;;;0.68;;
47589;SDS011;33316;52.298;9.056;2023-04-25T11:54:36;4.28;;;1.02;;
47589;SDS011;33316;52.298;9.056;2023-04-25T11:57:03;4.50;;;0.90;;
47589;SDS011;33316;52.298;9.056;2023-04-25T11:59:29;3.42;;;0.55;;
47589;SDS011;33316;52.298;9.056;2023-04-25T12:01:56;2.58;;;0.55;;
47589;SDS011;33316;52.298;9.056;2023-04-25T12:04:24;2.63;;;0.65;;
47589;SDS011;33316;52.298;9.056;2023-04-25T12:06:54;2.35;;;0.60;;
47589;SDS011;33316;52.298;9.056;2023-04-25T12:09:27;2.42;;;0.60;;
47589;SDS011;33316;52.298;9.056;2023-04-25T12:11:57;3.25;;;0.52;;
47589;SDS011;33316;52.298;9.056;2023-04-25T12:14:28;1.48;;;0.45;;
47589;SDS011;33316;52.298;9.056;2023-04-25T12:16:55;1.23;;;0.50;;
47589;SDS011;33316;52.298;9.056;2023-04-25T12:19:23;0.65;;;0.40;;
47589;SDS011;33316;52.298;9.056;2023-04-25T12:21:50;1.67;;;0.50;;
47589;SDS011;33316;52.298;9.056;2023-04-25T12:24:21;1.45;;;0.60;;
47589;SDS011;33316;52.298;9.056;2023-04-25T12:26:53;2.38;;;0.65;;
47589;SDS011;33316;52.298;9.056;2023-04-25T12:29:26;2.38;;;0.60;;
47589;SDS011;33316;52.298;9.056;2023-04-25T12:31:54;1.90;;;0.52;;
47589;SDS011;33316;52.298;9.056;2023-04-25T12:34:22;2.50;;;0.60;;
47589;SDS011;33316;52.298;9.056;2023-04-25T12:36:51;3.20;;;0.77;;
47589;SDS011;33316;52.298;9.056;2023-04-25T12:39:19;1.60;;;0.50;;
47589;SDS011;33316;52.298;9.056;2023-04-25T12:41:50;1.42;;;0.60;;
47589;SDS011;33316;52.298;9.056;2023-04-25T12:44:20;2.83;;;0.73;;
47589;SDS011;33316;52.298;9.056;2023-04-25T12:46:48;2.90;;;0.60;;
47589;SDS011;33316;52.298;9.056;2023-04-25T12:49:17;2.55;;;0.60;;
47589;SDS011;33316;52.298;9.056;2023-04-25T12:52:00;1.17;;;0.40;;
47589;SDS011;33316;52.298;9.056;2023-04-25T12:54:26;2.38;;;0.63;;
47589;SDS011;33316;52.298;9.056;2023-04-25T12:56:53;2.78;;;0.50;;
47589;SDS011;33316;52.298;9.056;2023-04-25T12:59:21;1.98;;;0.40;;
47589;SDS011;33316;52.298;9.056;2023-04-25T13:01:48;2.40;;;0.70;;
47589;SDS011;33316;52.298;9.056;2023-04-25T13:04:18;2.33;;;0.82;;
47589;SDS011;33316;52.298;9.056;2023-04-25T13:06:45;2.50;;;0.45;;
47589;SDS011;33316;52.298;9.056;2023-04-25T13:09:14;2.97;;;0.70;;
47589;SDS011;33316;52.298;9.056;2023-04-25T13:11:41;1.13;;;0.50;;
47589;SDS011;33316;52.298;9.056;2023-04-25T13:14:08;2.55;;;0.50;;
47589;SDS011;33316;52.298;9.056;2023-04-25T13:16:39;1.98;;;0.60;;
47589;SDS011;33316;52.298;9.056;2023-04-25T13:19:06;1.08;;;0.30;;
47589;SDS011;33316;52.298;9.056;2023-04-25T13:21:35;0.68;;;0.30;;
47589;SDS011;33316;52.298;9.056;2023-04-25T13:24:03;1.55;;;0.50;;
47589;SDS011;33316;52.298;9.056;2023-04-25T13:26:30;2.25;;;0.60;;
47589;SDS011;33316;52.298;9.056;2023-04-25T13:28:56;1.42;;;0.60;;
47589;SDS011;33316;52.298;9.056;2023-04-25T13:31:25;1.08;;;0.40;;
47589;SDS011;33316;52.298;9.056;2023-04-25T13:33:53;1.38;;;0.50;;
47589;SDS011;33316;52.298;9.056;2023-04-25T13:36:20;4.00;;;0.70;;
47589;SDS011;33316;52.298;9.056;2023-04-25T13:38:46;2.03;;;0.70;;
47589;SDS011;33316;52.298;9.056;2023-04-25T13:41:14;0.63;;;0.52;;
47589;SDS011;33316;52.298;9.056;2023-04-25T13:43:43;2.58;;;0.68;;
47589;SDS011;33316;52.298;9.056;2023-04-25T13:46:12;2.47;;;0.57;;
47589;SDS011;33316;52.298;9.056;2023-04-25T13:48:40;3.10;;;0.70;;
47589;SDS011;33316;52.298;9.056;2023-04-25T13:51:18;2.95;;;0.50;;
47589;SDS011;33316;52.298;9.056;2023-04-25T13:53:45;2.40;;;0.80;;
47589;SDS011;33316;52.298;9.056;2023-04-25T13:56:12;4.38;;;0.90;;
47589;SDS011;33316;52.298;9.056;2023-04-25T13:58:38;3.75;;;0.80;;
47589;SDS011;33316;52.298;9.056;2023-04-25T14:01:05;2.78;;;0.55;;
47589;SDS011;33316;52.298;9.056;2023-04-25T14:03:32;1.42;;;0.60;;
47589;SDS011;33316;52.298;9.056;2023-04-25T14:05:59;1.60;;;0.60;;
47589;SDS011;33316;52.298;9.056;2023-04-25T14:08:27;3.55;;;0.70;;
47589;SDS011;33316;52.298;9.056;2023-04-25T14:10:54;2.42;;;0.80;;
47589;SDS011;33316;52.298;9.056;2023-04-25T14:13:21;2.55;;;0.85;;
47589;SDS011;33316;52.298;9.056;2023-04-25T14:15:48;2.55;;;0.80;;
47589;SDS011;33316;52.298;9.056;2023-04-25T14:18:16;1.42;;;0.60;;
47589;SDS011;33316;52.298;9.056;2023-04-25T14:20:43;2.88;;;0.80;;
47589;SDS011;33316;52.298;9.056;2023-04-25T14:23:10;1.95;;;0.55;;
47589;SDS011;33316;52.298;9.056;2023-04-25T14:25:38;2.47;;;0.70;;
47589;SDS011;33316;52.298;9.056;2023-04-25T14:28:05;3.65;;;0.90;;
47589;SDS011;33316;52.298;9.056;2023-04-25T14:30:31;3.33;;;0.95;;
47589;SDS011;33316;52.298;9.056;2023-04-25T14:32:58;8.95;;;4.32;;
47589;SDS011;33316;52.298;9.056;2023-04-25T14:35:25;6.32;;;2.20;;
47589;SDS011;33316;52.298;9.056;2023-04-25T14:37:53;3.25;;;0.90;;
47589;SDS011;33316;52.298;9.056;2023-04-25T14:40:21;1.85;;;0.63;;
47589;SDS011;33316;52.298;9.056;2023-04-25T14:42:52;3.33;;;0.50;;
47589;SDS011;33316;52.298;9.056;2023-04-25T14:45:19;2.72;;;0.70;;
47589;SDS011;33316;52.298;9.056;2023-04-25T14:47:46;1.55;;;0.50;;
47589;SDS011;33316;52.298;9.056;2023-04-25T14:50:12;2.35;;;0.50;;
47589;SDS011;33316;52.298;9.056;2023-04-25T14:52:39;2.33;;;0.32;;